Time;durP1;ratioP1;P1;durP2;ratioP2;P2;SDS_P1;SDS_P2;PMS_P1;PMS_P2;Temp;Humidity;BMP_temperature;BMP_pressure;BME280_temperature;BME280_humidity;BME280_pressure;Samples;Min_cycle;Max_cycle;Signal;HPM_P1;HPM_P2
2022/10/06 00:00:30;;;;;;;12.47;1.20;;;;;;;10.95;100.00;101999.81;5134713;27;20030;-85
2022/10/06 00:02:55;;;;;;;9.50;1.20;;;;;;;11.01;100.00;102021.63;5133554;27;20291;-85
2022/10/06 00:05:21;;;;;;;11.27;1.43;;;;;;;10.94;100.00;102009.84;5133418;27;20385;-85
2022/10/06 00:07:46;;;;;;;9.82;1.23;;;;;;;10.98;100.00;102024.69;5116468;27;20083;-85
2022/10/06 00:10:12;;;;;;;7.50;1.53;;;;;;;11.02;100.00;102028.72;5133394;27;20042;-85
2022/10/06 00:12:39;;;;;;;9.97;1.40;;;;;;;10.98;100.00;102027.41;5117158;28;20118;-85
2022/10/06 00:15:05;;;;;;;11.30;1.30;;;;;;;11.01;100.00;102045.22;5134352;28;20276;-85
2022/10/06 00:17:30;;;;;;;11.45;1.55;;;;;;;11.03;100.00;102044.00;5133469;28;20371;-85
2022/10/06 00:19:56;;;;;;;9.70;1.30;;;;;;;11.05;100.00;102049.25;5133779;28;20388;-85
2022/10/06 00:22:21;;;;;;;10.97;1.87;;;;;;;11.02;100.00;102053.16;5133646;28;20126;-85
2022/10/06 00:24:46;;;;;;;8.77;1.30;;;;;;;10.97;100.00;102055.63;5133488;28;20027;-85
2022/10/06 00:27:12;;;;;;;17.27;1.43;;;;;;;10.95;100.00;102060.38;5134706;27;20117;-85
2022/10/06 00:29:41;;;;;;;12.77;1.97;;;;;;;10.92;100.00;102059.94;5146955;27;20442;-85
2022/10/06 00:32:08;;;;;;;7.05;1.23;;;;;;;10.92;100.00;102062.66;5120782;27;20080;-85
2022/10/06 00:34:37;;;;;;;6.78;1.23;;;;;;;10.92;100.00;102071.63;5137025;27;20030;-85
2022/10/06 00:37:03;;;;;;;11.17;1.40;;;;;;;10.88;100.00;102070.34;5136685;27;20532;-85
2022/10/06 00:39:28;;;;;;;8.68;1.42;;;;;;;10.96;100.00;102081.09;5136927;27;20034;-85
2022/10/06 00:41:54;;;;;;;5.43;1.30;;;;;;;10.88;100.00;102071.16;5136841;27;20071;-85
2022/10/06 00:44:19;;;;;;;12.77;1.10;;;;;;;10.97;100.00;102087.34;5136981;27;20031;-85
2022/10/06 00:46:48;;;;;;;12.80;1.67;;;;;;;10.96;100.00;102088.41;5136737;27;20053;-85
2022/10/06 00:49:22;;;;;;;12.38;1.77;;;;;;;10.91;100.00;102078.09;5137431;27;20030;-85
2022/10/06 00:52:02;;;;;;;10.35;1.50;;;;;;;10.87;100.00;102090.38;5136885;27;20030;-85
2022/10/06 00:54:27;;;;;;;13.70;1.45;;;;;;;10.86;100.00;102097.66;5154910;27;20497;-84
2022/10/06 00:56:53;;;;;;;9.83;1.60;;;;;;;10.78;100.00;102096.94;5119513;27;20035;-85
2022/10/06 00:59:19;;;;;;;8.57;1.20;;;;;;;10.82;100.00;102092.78;5136814;27;20205;-85
2022/10/06 01:02:00;;;;;;;9.75;1.40;;;;;;;10.76;100.00;102099.78;5119217;27;20027;-84
2022/10/06 01:04:26;;;;;;;6.38;1.25;;;;;;;10.77;100.00;102114.22;5119415;27;20077;-84
2022/10/06 01:06:54;;;;;;;11.47;1.53;;;;;;;10.79;100.00;102104.03;5137006;27;20026;-85
2022/10/06 01:09:23;;;;;;;10.15;1.15;;;;;;;10.68;100.00;102100.72;5154985;27;20147;-85
2022/10/06 01:11:52;;;;;;;8.50;1.25;;;;;;;10.69;100.00;102116.00;5136683;27;20053;-84
2022/10/06 01:14:20;;;;;;;9.70;1.50;;;;;;;10.69;100.00;102123.31;5136986;27;20035;-85
2022/10/06 01:16:52;;;;;;;14.38;1.80;;;;;;;10.66;100.00;102132.66;5136394;27;20094;-85
2022/10/06 01:27:01;;;;;;;14.20;1.90;;;;;;;10.58;100.00;102148.19;5158646;27;20164;-85
2022/10/06 01:32:50;;;;;;;12.13;1.38;;;;;;;10.55;100.00;102157.53;5137747;27;20087;-84
2022/10/06 01:35:16;;;;;;;11.50;1.57;;;;;;;10.58;100.00;102153.59;5120179;27;20072;-84
2022/10/06 01:37:41;;;;;;;13.13;1.35;;;;;;;10.53;100.00;102156.88;5136195;27;20438;-84
2022/10/06 01:40:08;;;;;;;10.83;1.30;;;;;;;10.48;100.00;102162.84;5119464;27;20453;-84
2022/10/06 01:42:34;;;;;;;11.13;1.50;;;;;;;10.46;100.00;102169.47;5136149;27;20402;-84
2022/10/06 01:45:00;;;;;;;10.07;1.17;;;;;;;10.50;100.00;102176.22;5137715;27;20115;-84
2022/10/06 01:47:26;;;;;;;6.95;1.95;;;;;;;10.45;100.00;102179.50;5137515;27;20027;-85
2022/10/06 01:49:51;;;;;;;10.00;1.38;;;;;;;10.36;100.00;102164.28;5136089;27;20075;-85
2022/10/06 01:52:18;;;;;;;9.47;1.50;;;;;;;10.37;100.00;102167.88;5118929;27;20043;-84
2022/10/06 01:54:43;;;;;;;15.32;1.67;;;;;;;10.43;100.00;102184.25;5119043;27;20076;-85
2022/10/06 01:57:08;;;;;;;15.00;1.47;;;;;;;10.48;100.00;102191.84;5135929;27;20065;-84
2022/10/06 01:59:34;;;;;;;10.50;1.23;;;;;;;10.52;100.00;102198.59;5119106;27;20031;-85
2022/10/06 02:02:00;;;;;;;11.83;1.30;;;;;;;10.53;100.00;102194.88;5135774;27;20239;-85
2022/10/06 02:04:25;;;;;;;11.35;1.20;;;;;;;10.61;100.00;102196.66;5135652;27;20031;-85
2022/10/06 02:06:51;;;;;;;15.27;1.33;;;;;;;10.60;100.00;102197.69;5135660;27;20093;-85
2022/10/06 02:09:16;;;;;;;11.00;1.40;;;;;;;10.58;100.00;102178.03;5135834;27;20122;-85
2022/10/06 02:11:42;;;;;;;13.03;1.30;;;;;;;10.55;100.00;102191.97;5118525;27;20039;-85
2022/10/06 02:14:08;;;;;;;18.02;2.15;;;;;;;10.56;100.00;102207.22;5118507;27;20031;-85
2022/10/06 02:16:34;;;;;;;8.43;1.63;;;;;;;10.50;100.00;102190.63;5137186;27;20034;-84
2022/10/06 02:19:00;;;;;;;9.65;1.30;;;;;;;10.50;100.00;102193.34;5118938;27;20133;-84
2022/10/06 02:21:25;;;;;;;6.70;1.07;;;;;;;10.51;100.00;102215.88;5137000;27;20128;-85
2022/10/06 02:23:51;;;;;;;11.52;1.70;;;;;;;10.47;100.00;102214.59;5118595;27;20370;-85
2022/10/06 02:26:17;;;;;;;12.57;1.70;;;;;;;10.48;100.00;102213.53;5118067;27;20474;-85
2022/10/06 02:28:44;;;;;;;9.55;1.48;;;;;;;10.42;100.00;102212.38;5139751;27;20046;-85
2022/10/06 02:31:10;;;;;;;10.73;1.50;;;;;;;10.38;100.00;102224.66;5138932;27;20121;-85
2022/10/06 02:33:36;;;;;;;13.70;1.35;;;;;;;10.45;100.00;102241.03;5138662;27;20083;-85
2022/10/06 02:36:04;;;;;;;9.38;1.25;;;;;;;10.42;100.00;102249.53;5138560;27;20031;-85
2022/10/06 02:38:30;;;;;;;11.20;1.70;;;;;;;10.33;100.00;102237.88;5157218;27;20031;-85
2022/10/06 02:40:57;;;;;;;13.40;2.03;;;;;;;10.31;100.00;102231.78;5138560;27;20479;-85
2022/10/06 02:43:22;;;;;;;15.30;1.63;;;;;;;10.31;100.00;102248.91;5138720;27;20070;-85
2022/10/06 02:46:00;;;;;;;12.98;1.48;;;;;;;10.29;100.00;102248.25;5139000;27;20023;-85
2022/10/06 02:48:26;;;;;;;12.93;1.70;;;;;;;10.29;100.00;102256.38;5157011;27;20046;-84
2022/10/06 02:51:15;;;;;;;10.25;1.45;;;;;;;10.25;100.00;102255.06;5156941;27;20034;-84
2022/10/06 02:53:43;;;;;;;10.75;1.45;;;;;;;10.25;100.00;102260.47;5138591;27;20095;-85
2022/10/06 02:56:15;;;;;;;14.23;1.48;;;;;;;10.13;100.00;102265.47;5138477;27;20026;-84
2022/10/06 02:58:41;;;;;;;11.65;1.40;;;;;;;10.17;100.00;102274.94;5138762;27;20031;-85
2022/10/06 03:01:16;;;;;;;9.57;1.20;;;;;;;10.10;100.00;102276.66;5138601;27;20027;-84
2022/10/06 03:03:42;;;;;;;10.95;1.10;;;;;;;10.10;100.00;102279.38;5156351;27;20027;-84
2022/10/06 03:06:22;;;;;;;10.75;1.60;;;;;;;10.07;100.00;102285.16;5138002;27;20110;-84
2022/10/06 03:08:55;;;;;;;10.82;1.65;;;;;;;10.01;100.00;102289.41;5138302;27;20419;-84
2022/10/06 03:11:24;;;;;;;12.07;1.43;;;;;;;9.93;100.00;102285.91;5138788;27;20030;-84
2022/10/06 03:13:50;;;;;;;12.30;1.30;;;;;;;9.96;100.00;102297.22;5137571;27;20027;-84
2022/10/06 03:16:19;;;;;;;17.23;1.58;;;;;;;9.92;100.00;102289.63;5156703;27;20018;-85
2022/10/06 03:18:48;;;;;;;10.48;1.58;;;;;;;9.90;100.00;102303.34;5138002;27;20030;-85
2022/10/06 03:21:14;;;;;;;13.98;1.35;;;;;;;9.84;100.00;102304.88;5156264;27;20027;-85
2022/10/06 03:23:41;;;;;;;16.97;1.77;;;;;;;9.82;100.00;102311.53;5137413;27;20198;-85
2022/10/06 03:26:07;;;;;;;10.48;1.40;;;;;;;9.79;100.00;102315.44;5137541;27;20022;-85
2022/10/06 03:28:33;;;;;;;9.85;1.88;;;;;;;9.76;100.00;102307.66;5155994;27;20055;-85
2022/10/06 03:31:05;;;;;;;13.63;1.60;;;;;;;9.68;100.00;102307.66;5138184;27;20046;-84
2022/10/06 03:33:31;;;;;;;12.10;1.70;;;;;;;9.67;100.00;102311.41;5155764;27;20618;-85
2022/10/06 03:36:08;;;;;;;8.77;1.52;;;;;;;9.71;100.00;102328.16;5137766;27;20071;-85
2022/10/06 03:38:34;;;;;;;12.35;1.30;;;;;;;9.68;100.00;102334.75;5137795;27;20530;-85
2022/10/06 03:41:07;;;;;;;14.53;1.80;;;;;;;9.66;100.00;102334.09;5137198;27;20038;-85
2022/10/06 03:43:34;;;;;;;11.18;1.75;;;;;;;9.62;100.00;102333.56;5138200;27;20038;-85
2022/10/06 03:46:00;;;;;;;18.10;1.45;;;;;;;9.56;100.00;102339.69;5120416;27;20035;-85
2022/10/06 03:48:30;;;;;;;14.00;1.58;;;;;;;9.48;100.00;102348.69;5120279;27;20034;-85
2022/10/06 03:51:00;;;;;;;13.27;1.90;;;;;;;9.54;100.00;102346.31;5137206;27;20087;-84
2022/10/06 03:53:28;;;;;;;11.60;1.60;;;;;;;9.53;100.00;102352.75;5137810;27;20027;-84
2022/10/06 03:56:15;;;;;;;15.32;2.00;;;;;;;9.46;100.00;102350.72;5155797;27;20023;-85
2022/10/06 03:58:43;;;;;;;16.17;1.83;;;;;;;9.44;100.00;102360.88;5137110;27;20050;-85
2022/10/06 04:01:18;;;;;;;15.10;1.73;;;;;;;9.40;100.00;102362.22;5137788;27;20041;-85
2022/10/06 04:03:44;;;;;;;12.02;1.63;;;;;;;9.40;100.00;102370.34;5137916;27;20407;-85
2022/10/06 04:06:13;;;;;;;21.83;2.13;;;;;;;9.41;100.00;102376.63;5137839;27;20121;-85
2022/10/06 04:08:40;;;;;;;17.42;1.85;;;;;;;9.34;100.00;102381.88;5155612;27;20071;-85
2022/10/06 04:11:07;;;;;;;17.20;2.03;;;;;;;9.37;100.00;102386.94;5137165;27;20034;-84
2022/10/06 04:13:33;;;;;;;14.13;1.90;;;;;;;9.29;100.00;102385.09;5136587;27;20027;-85
2022/10/06 04:16:15;;;;;;;15.10;1.85;;;;;;;9.35;100.00;102390.88;5137749;27;20339;-85
2022/10/06 04:18:43;;;;;;;12.67;2.33;;;;;;;9.28;100.00;102391.53;5136615;27;20023;-85
2022/10/06 04:21:09;;;;;;;15.05;1.52;;;;;;;9.24;100.00;102395.59;5137019;27;20458;-85
2022/10/06 04:23:35;;;;;;;13.70;2.10;;;;;;;9.30;100.00;102396.78;5136748;27;20022;-85
2022/10/06 04:26:05;;;;;;;15.53;2.23;;;;;;;9.28;100.00;102402.34;5136994;27;20374;-85
2022/10/06 04:28:37;;;;;;;15.82;1.90;;;;;;;9.19;100.00;102406.09;5136583;27;20372;-85
2022/10/06 04:31:05;;;;;;;21.30;2.00;;;;;;;9.23;100.00;102404.75;5155167;27;20034;-85
2022/10/06 04:33:33;;;;;;;16.75;2.00;;;;;;;9.16;100.00;102411.00;5136788;27;20389;-85
2022/10/06 04:36:01;;;;;;;20.35;1.85;;;;;;;9.16;100.00;102413.72;5137015;27;20493;-85
2022/10/06 04:38:28;;;;;;;15.68;2.17;;;;;;;9.16;100.00;102419.13;5137019;27;20080;-85
2022/10/06 04:40:54;;;;;;;14.40;2.50;;;;;;;9.12;100.00;102421.31;5155228;27;20114;-85
2022/10/06 04:43:20;;;;;;;13.43;1.98;;;;;;;9.03;100.00;102420.44;5120020;27;20034;-85
2022/10/06 04:45:45;;;;;;;19.60;2.83;;;;;;;9.04;100.00;102419.44;5119615;27;20122;-85
2022/10/06 04:48:10;;;;;;;14.93;2.20;;;;;;;9.04;100.00;102435.69;5136971;27;20114;-85
2022/10/06 04:50:36;;;;;;;15.43;1.97;;;;;;;9.01;100.00;102436.03;5119508;27;20034;-85
2022/10/06 04:53:01;;;;;;;17.80;2.20;;;;;;;8.92;100.00;102435.16;5138205;27;20023;-84
2022/10/06 04:55:27;;;;;;;9.23;1.70;;;;;;;8.95;100.00;102450.22;5123453;27;20042;-85
2022/10/06 04:57:54;;;;;;;14.60;1.83;;;;;;;8.85;100.00;102436.81;5123380;27;20023;-85
2022/10/06 05:00:24;;;;;;;16.00;1.73;;;;;;;8.82;100.00;102439.88;5158756;27;20280;-85
2022/10/06 05:02:54;;;;;;;15.32;2.25;;;;;;;8.78;100.00;102447.47;5140289;27;20023;-85
2022/10/06 05:05:20;;;;;;;18.10;2.00;;;;;;;8.76;100.00;102460.31;5124107;27;20042;-85
2022/10/06 05:07:49;;;;;;;24.77;2.10;;;;;;;8.70;100.00;102463.66;5158972;27;20019;-85
2022/10/06 05:10:14;;;;;;;15.75;2.17;;;;;;;8.67;100.00;102463.16;5141037;27;20604;-85
2022/10/06 05:12:40;;;;;;;18.10;2.40;;;;;;;8.73;100.00;102470.63;5140540;27;20065;-84
2022/10/06 05:15:08;;;;;;;17.87;2.03;;;;;;;8.66;100.00;102475.81;5140110;27;20033;-85
2022/10/06 05:17:34;;;;;;;22.75;1.95;;;;;;;8.58;100.00;102462.28;5140228;27;20027;-85
2022/10/06 05:19:59;;;;;;;17.17;2.00;;;;;;;8.57;100.00;102472.25;5139951;27;20033;-85
2022/10/06 05:22:24;;;;;;;12.17;2.07;;;;;;;8.60;100.00;102471.91;5139731;27;20039;-85
2022/10/06 05:24:52;;;;;;;15.90;1.80;;;;;;;8.55;100.00;102481.56;5122758;27;20023;-85
2022/10/06 05:27:19;;;;;;;15.07;2.20;;;;;;;8.57;100.00;102495.75;5140964;27;20362;-84
2022/10/06 05:29:46;;;;;;;14.68;2.03;;;;;;;8.53;100.00;102486.25;5158236;27;20544;-84
2022/10/06 05:32:12;;;;;;;14.00;2.38;;;;;;;8.51;100.00;102494.53;5158429;27;20030;-84
2022/10/06 05:34:37;;;;;;;18.80;2.10;;;;;;;8.43;100.00;102489.91;5158083;27;20481;-84
2022/10/06 05:37:05;;;;;;;15.77;2.23;;;;;;;8.47;100.00;102509.38;5139649;27;20071;-84
2022/10/06 05:39:33;;;;;;;19.73;2.53;;;;;;;8.41;100.00;102508.16;5139709;27;20026;-86
2022/10/06 05:41:58;;;;;;;23.42;2.80;;;;;;;8.43;100.00;102526.94;5122439;27;20030;-86
2022/10/06 05:44:24;;;;;;;19.13;2.67;;;;;;;8.38;100.00;102516.56;5122040;27;20053;-86
2022/10/06 05:46:49;;;;;;;17.00;2.13;;;;;;;8.40;100.00;102528.09;5139655;27;20031;-85
2022/10/06 05:49:17;;;;;;;12.65;1.98;;;;;;;8.41;100.00;102531.63;5122403;27;20393;-85
2022/10/06 05:51:42;;;;;;;18.25;1.92;;;;;;;8.38;100.00;102531.97;5140241;27;20033;-85
2022/10/06 05:54:08;;;;;;;13.43;1.85;;;;;;;8.34;100.00;102534.16;5139407;27;20030;-85
2022/10/06 05:56:37;;;;;;;18.70;2.10;;;;;;;8.37;100.00;102532.97;5139367;27;20029;-86
2022/10/06 05:59:05;;;;;;;11.93;2.72;;;;;;;8.37;100.00;102538.38;5122320;27;20031;-85
2022/10/06 06:01:33;;;;;;;26.38;2.45;;;;;;;8.35;100.00;102543.94;5139325;27;20027;-85
2022/10/06 06:04:02;;;;;;;22.40;2.63;;;;;;;8.34;100.00;102544.09;5138694;27;20070;-85
2022/10/06 06:06:32;;;;;;;16.67;2.08;;;;;;;8.40;100.00;102549.72;5139047;27;20457;-85
2022/10/06 06:09:00;;;;;;;17.08;2.53;;;;;;;8.38;100.00;102557.13;5157333;27;20019;-85
2022/10/06 06:11:28;;;;;;;15.10;2.10;;;;;;;8.35;100.00;102551.22;5138996;27;20083;-86
2022/10/06 06:14:00;;;;;;;17.95;2.13;;;;;;;8.40;100.00;102565.09;5138928;27;20110;-85
2022/10/06 06:16:30;;;;;;;21.95;2.55;;;;;;;8.43;100.00;102560.22;5138677;27;20030;-85
2022/10/06 06:18:56;;;;;;;25.80;2.53;;;;;;;8.40;100.00;102554.28;5156872;27;20109;-86
2022/10/06 06:21:22;;;;;;;26.90;2.65;;;;;;;8.43;100.00;102564.81;5138855;27;20079;-85
2022/10/06 06:23:54;;;;;;;23.83;3.03;;;;;;;8.42;100.00;102563.09;5139305;27;20347;-85
2022/10/06 06:26:22;;;;;;;14.68;1.90;;;;;;;8.49;100.00;102568.75;5138431;27;20031;-85
2022/10/06 06:28:49;;;;;;;18.80;2.05;;;;;;;8.46;100.00;102569.06;5156713;27;20058;-85
2022/10/06 06:31:26;;;;;;;17.92;2.60;;;;;;;8.48;100.00;102567.91;5138666;27;20058;-86
2022/10/06 06:33:57;;;;;;;17.42;2.08;;;;;;;8.53;100.00;102572.81;5157150;27;20027;-85
2022/10/06 06:36:36;;;;;;;11.63;2.00;;;;;;;8.54;100.00;102579.94;5139295;27;20035;-86
2022/10/06 06:39:04;;;;;;;20.08;2.22;;;;;;;8.58;100.00;102586.75;5139241;27;20186;-86
2022/10/06 06:41:32;;;;;;;20.33;2.17;;;;;;;8.63;100.00;102589.81;5138262;27;20113;-86
2022/10/06 06:44:03;;;;;;;19.70;2.03;;;;;;;8.61;100.00;102581.00;5138019;27;20031;-86
2022/10/06 06:46:31;;;;;;;17.70;2.10;;;;;;;8.68;100.00;102586.59;5156756;27;20027;-86
2022/10/06 06:49:03;;;;;;;23.52;2.97;;;;;;;8.70;100.00;102598.16;5120795;27;20034;-85
2022/10/06 06:51:29;;;;;;;21.95;2.78;;;;;;;8.76;100.00;102609.16;5138117;27;20092;-86
2022/10/06 06:54:02;;;;;;;28.33;2.67;;;;;;;8.76;100.00;102605.63;5156963;27;20486;-86
2022/10/06 06:56:33;;;;;;;16.35;2.08;;;;;;;8.79;100.00;102613.41;5137419;27;20042;-86
2022/10/06 06:59:00;;;;;;;18.08;2.92;;;;;;;8.84;100.00;102610.22;5138716;27;20356;-85
2022/10/06 07:01:27;;;;;;;12.23;2.15;;;;;;;8.91;100.00;102619.41;5138003;27;20030;-85
2022/10/06 07:03:55;;;;;;;23.55;2.92;;;;;;;8.94;100.00;102622.63;5120741;27;20022;-85
2022/10/06 07:06:27;;;;;;;24.30;2.60;;;;;;;8.97;100.00;102618.75;5137993;27;20058;-86
2022/10/06 07:09:21;;;;;;;16.48;2.47;;;;;;;9.08;100.00;102642.84;5122081;27;20122;-89
2022/10/06 07:11:58;;;;;;;16.20;2.28;;;;;;;9.10;100.00;102638.09;5137806;27;20030;-89
2022/10/06 07:14:28;;;;;;;14.95;2.38;;;;;;;9.17;100.00;102635.63;5138458;27;20033;-89
2022/10/06 07:25:24;;;;;;;28.30;2.95;;;;;;;9.46;100.00;102648.78;5156564;27;20163;-88
2022/10/06 07:27:52;;;;;;;16.90;2.47;;;;;;;9.51;100.00;102661.81;5137393;27;20027;-88
2022/10/06 07:30:33;;;;;;;15.50;2.65;;;;;;;9.55;100.00;102660.47;5136911;27;20053;-87
2022/10/06 07:33:07;;;;;;;18.42;2.30;;;;;;;9.65;100.00;102674.75;5137765;27;20022;-88
2022/10/06 07:35:37;;;;;;;17.02;2.38;;;;;;;9.68;100.00;102675.41;5121239;27;20030;-88
2022/10/06 07:38:06;;;;;;;21.40;2.80;;;;;;;9.74;100.00;102680.19;5137260;27;20045;-88
2022/10/06 07:40:42;;;;;;;27.67;2.60;;;;;;;9.79;100.00;102678.66;5137308;27;20117;-88
2022/10/06 07:43:34;;;;;;;25.73;2.70;;;;;;;9.88;100.00;102684.13;5137540;27;20049;-88
2022/10/06 07:46:08;;;;;;;16.98;2.33;;;;;;;9.98;100.00;102690.22;5137889;27;20122;-88
2022/10/06 07:48:41;;;;;;;18.63;2.30;;;;;;;10.09;100.00;102692.63;5137489;27;20030;-88
2022/10/06 07:51:20;;;;;;;17.67;2.03;;;;;;;10.16;100.00;102692.81;5138124;27;20163;-88
2022/10/06 07:53:49;;;;;;;14.90;2.42;;;;;;;10.24;100.00;102703.66;5137362;27;20027;-88
2022/10/06 07:56:27;;;;;;;16.05;2.33;;;;;;;10.31;100.00;102703.84;5137853;27;20122;-88
2022/10/06 07:59:06;;;;;;;16.13;2.70;;;;;;;10.39;99.92;102695.72;5120447;27;20034;-89
2022/10/06 08:01:32;;;;;;;15.40;2.38;;;;;;;10.46;100.00;102702.19;5121099;27;20034;-86
2022/10/06 08:04:05;;;;;;;16.60;1.95;;;;;;;10.53;100.00;102711.34;5137236;27;20030;-86
2022/10/06 08:06:34;;;;;;;16.40;1.90;;;;;;;10.60;98.19;102703.38;5136413;27;20038;-85
2022/10/06 08:09:05;;;;;;;16.98;2.28;;;;;;;10.73;98.50;102712.88;5136586;27;20023;-85
2022/10/06 08:11:31;;;;;;;11.65;2.05;;;;;;;10.80;98.70;102725.59;5137151;27;20482;-86
2022/10/06 08:13:57;;;;;;;17.23;2.67;;;;;;;10.85;97.01;102720.50;5137128;27;20027;-86
2022/10/06 08:16:29;;;;;;;18.50;2.93;;;;;;;10.86;97.14;102724.91;5137001;27;20542;-85
2022/10/06 08:18:56;;;;;;;16.67;2.25;;;;;;;10.98;96.75;102736.25;5137347;27;20018;-85
2022/10/06 08:21:26;;;;;;;17.05;2.20;;;;;;;10.98;97.11;102729.97;5136705;27;20022;-85
2022/10/06 08:23:55;;;;;;;24.70;2.58;;;;;;;11.06;96.71;102743.56;5136929;27;20420;-85
2022/10/06 08:26:28;;;;;;;11.40;2.10;;;;;;;11.11;96.46;102740.31;5120298;27;20035;-85
2022/10/06 08:29:11;;;;;;;19.60;2.73;;;;;;;11.19;94.41;102740.28;5159811;27;20467;-86
2022/10/06 08:31:44;;;;;;;17.50;2.28;;;;;;;11.26;94.89;102746.72;5140599;27;20030;-87
2022/10/06 08:34:10;;;;;;;15.73;2.22;;;;;;;11.31;94.59;102759.78;5124762;27;20031;-87
2022/10/06 08:36:46;;;;;;;18.95;3.15;;;;;;;11.40;94.54;102756.06;5159879;27;20079;-87
2022/10/06 08:39:29;;;;;;;;;;;;;;;;;;;;;
2022/10/06 08:42:02;;;;;;;18.17;2.60;;;;;;;11.54;93.47;102747.16;5159588;27;20037;-87
2022/10/06 08:44:45;;;;;;;23.20;2.53;;;;;;;11.67;93.40;102772.97;5140954;27;20420;-87
2022/10/06 08:47:18;;;;;;;12.45;2.53;;;;;;;11.71;93.85;102758.81;5141048;27;20121;-87
2022/10/06 08:49:49;;;;;;;23.15;2.88;;;;;;;11.74;91.58;102757.63;5141185;27;20053;-87
2022/10/06 08:52:48;;;;;;;16.77;2.20;;;;;;;11.87;93.46;102770.66;5140492;27;20022;-87
2022/10/06 08:55:26;;;;;;;17.57;2.53;;;;;;;11.94;91.77;102763.50;5140026;27;20026;-87
2022/10/06 08:58:19;;;;;;;28.83;2.70;;;;;;;11.99;91.23;102765.69;5141284;27;20026;-88
2022/10/06 09:01:14;;;;;;;14.77;1.98;;;;;;;12.09;90.95;102777.19;5140549;27;20506;-87
2022/10/06 09:03:57;;;;;;;10.50;1.90;;;;;;;12.19;89.28;102777.00;5140879;27;20038;-87
2022/10/06 09:06:47;;;;;;;13.55;1.90;;;;;;;12.31;90.00;102791.88;5140623;27;20381;-88
2022/10/06 09:09:46;;;;;;;11.77;2.60;;;;;;;12.37;89.00;102796.63;5140735;27;20084;-88
2022/10/06 09:12:20;;;;;;;18.10;2.25;;;;;;;12.45;86.18;102793.81;5159043;27;20116;-87
2022/10/06 09:15:07;;;;;;;12.75;2.20;;;;;;;12.52;85.89;102793.09;5140452;27;20034;-87
2022/10/06 09:17:48;;;;;;;10.05;2.05;;;;;;;12.58;84.55;102790.50;5140384;27;20037;-88
2022/10/06 09:20:29;;;;;;;16.38;2.03;;;;;;;12.63;83.86;102819.91;5139908;27;20022;-88
2022/10/06 09:22:58;;;;;;;15.40;1.90;;;;;;;12.66;83.31;102808.66;5123864;27;20103;-87
2022/10/06 09:25:28;;;;;;;11.27;2.00;;;;;;;12.71;84.21;102798.09;5159317;27;20025;-88
2022/10/06 09:28:15;;;;;;;13.43;2.70;;;;;;;12.75;83.26;102793.09;5140231;27;20454;-87
2022/10/06 09:30:46;;;;;;;15.75;2.13;;;;;;;12.81;83.93;102797.81;5135872;27;20043;-88
2022/10/06 09:33:24;;;;;;;11.52;1.73;;;;;;;12.88;83.07;102797.94;5136404;27;20087;-88
2022/10/06 09:36:08;;;;;;;15.13;2.30;;;;;;;12.96;82.01;102817.81;5136191;27;20034;-88
2022/10/06 09:39:14;;;;;;;15.35;2.20;;;;;;;13.04;81.88;102814.16;5135267;27;20054;-88
2022/10/06 09:41:54;;;;;;;;;;;;;;;;;;;;;
2022/10/06 09:48:32;;;;;;;18.80;2.08;;;;;;;13.34;81.06;102822.41;5138210;27;20035;-87
2022/10/06 09:51:32;;;;;;;11.13;2.30;;;;;;;13.43;80.92;102815.84;5104261;27;20126;-88
2022/10/06 09:54:28;;;;;;;14.13;1.65;;;;;;;13.58;78.46;102828.66;5119595;27;20121;-87
2022/10/06 09:57:24;;;;;;;12.73;1.73;;;;;;;13.62;78.89;102824.53;5137941;27;20027;-88
2022/10/06 09:59:52;;;;;;;15.73;2.00;;;;;;;13.66;77.59;102837.59;5135863;27;20030;-88
2022/10/06 10:02:45;;;;;;;;;;;;;;;;;;;;;
2022/10/06 10:05:20;;;;;;;11.30;2.27;;;;;;;13.85;76.12;102828.00;5137633;27;20468;-88
2022/10/06 10:08:28;;;;;;;;;;;;;;;;;;;;;
2022/10/06 10:14:13;;;;;;;14.82;1.80;;;;;;;14.02;72.35;102816.88;5136950;27;20038;-88
2022/10/06 10:16:56;;;;;;;13.25;1.73;;;;;;;14.13;72.11;102819.13;5136297;27;20031;-88
2022/10/06 10:19:43;;;;;;;10.83;2.20;;;;;;;14.18;71.86;102829.47;5136269;27;20027;-88
2022/10/06 10:25:45;;;;;;;;;;;;;;;;;;;;;
2022/10/06 10:28:40;;;;;;;13.73;2.05;;;;;;;14.38;69.51;102827.81;5136965;27;20034;-89
2022/10/06 10:31:23;;;;;;;;;;;;;;;;;;;;;
2022/10/06 10:37:54;;;;;;;;;;;;;;;;;;;;;
2022/10/06 10:40:52;;;;;;;10.05;2.35;;;;;;;14.71;67.04;102818.31;5033184;28;20025;-85
2022/10/06 10:44:30;;;;;;;7.43;1.63;;;;;;;14.84;65.31;102823.06;5016643;28;20033;-87
2022/10/06 10:47:21;;;;;;;7.38;1.33;;;;;;;14.97;64.76;102828.66;4960297;28;20067;-87
2022/10/06 10:50:04;;;;;;;9.63;1.63;;;;;;;15.03;62.93;102822.41;5008387;28;20140;-87
2022/10/06 10:52:51;;;;;;;10.65;1.40;;;;;;;15.15;63.04;102816.41;5034924;28;20101;-87
2022/10/06 10:56:24;;;;;;;10.68;1.73;;;;;;;15.40;62.36;102822.28;5052337;28;20025;-88
2022/10/06 10:59:36;;;;;;;9.30;1.67;;;;;;;16.01;62.27;102831.69;5035920;28;20056;-91
2022/10/06 11:09:05;;;;;;;9.77;1.83;;;;;;;23.44;43.95;102835.59;4974068;28;20042;-88
2022/10/06 11:12:42;;;;;;;;;;;;;;;;;;;;;
2022/10/06 11:15:56;;;;;;;6.13;1.67;;;;;;;25.26;37.25;102840.09;4968562;28;20491;-88
2022/10/06 11:19:08;;;;;;;;;;;;;;;;;;;;;
2022/10/06 11:22:34;;;;;;;5.50;1.80;;;;;;;25.59;38.34;102843.69;5012927;28;20038;-89
2022/10/06 11:26:03;;;;;;;;;;;;;;;;;;;;;
2022/10/06 11:28:59;;;;;;;5.95;2.30;;;;;;;28.35;33.67;102830.88;5012174;27;20414;-89
2022/10/06 11:31:30;;;;;;;6.55;2.30;;;;;;;30.00;28.42;102825.66;5122273;27;20041;-89
2022/10/06 11:41:19;;;;;;;10.13;2.53;;;;;;;31.20;28.32;102806.72;5045486;28;20052;-89
2022/10/06 11:44:28;;;;;;;11.15;2.88;;;;;;;30.79;26.04;102825.06;5053061;28;20036;-89
2022/10/06 11:50:54;;;;;;;7.30;2.95;;;;;;;30.41;27.05;102814.75;5053143;27;20398;-87
2022/10/06 11:53:38;;;;;;;7.43;2.57;;;;;;;31.18;27.16;102814.56;5134983;27;20414;-85
2022/10/06 11:56:16;;;;;;;7.93;3.10;;;;;;;31.26;25.65;102806.28;5135002;27;20023;-85
2022/10/06 11:58:50;;;;;;;9.30;2.80;;;;;;;30.37;26.05;102801.63;5134596;27;20039;-85
2022/10/06 12:01:39;;;;;;;7.72;2.78;;;;;;;30.90;25.74;102797.66;5115897;27;20080;-84
2022/10/06 12:04:15;;;;;;;8.63;2.47;;;;;;;31.69;25.40;102798.72;5116099;27;20536;-85
2022/10/06 12:06:40;;;;;;;6.77;2.80;;;;;;;31.97;24.00;102802.31;5116508;27;20073;-84
2022/10/06 12:09:29;;;;;;;10.68;2.60;;;;;;;33.12;23.90;102794.44;5116307;28;20426;-86
2022/10/06 12:12:23;;;;;;;4.97;2.40;;;;;;;35.86;20.00;102800.38;5116943;28;20360;-85
2022/10/06 12:15:17;;;;;;;5.38;2.35;;;;;;;35.65;20.72;102795.50;5134561;27;20027;-85
2022/10/06 12:18:11;;;;;;;6.00;2.63;;;;;;;34.66;19.86;102790.91;5116280;27;20051;-84
2022/10/06 12:21:16;;;;;;;6.03;2.42;;;;;;;33.36;22.53;102788.41;5116681;28;20058;-85
2022/10/06 12:23:54;;;;;;;8.38;2.50;;;;;;;32.13;22.17;102778.38;5050403;28;20032;-85
2022/10/06 12:26:48;;;;;;;5.13;2.70;;;;;;;32.32;21.43;102768.97;5116186;28;20034;-85
2022/10/06 12:29:33;;;;;;;8.55;2.92;;;;;;;32.31;21.37;102790.59;5134537;28;20082;-85
2022/10/06 12:32:05;;;;;;;6.45;2.90;;;;;;;32.23;21.70;102773.66;5116380;28;20524;-85
2022/10/06 12:34:49;;;;;;;6.70;2.70;;;;;;;33.81;20.93;102772.50;5134794;28;20416;-85
2022/10/06 12:37:37;;;;;;;7.60;2.67;;;;;;;34.49;20.44;102772.88;5134158;28;20038;-85
2022/10/06 12:40:40;;;;;;;5.13;2.60;;;;;;;35.70;20.85;102769.91;5116013;28;20037;-85
2022/10/06 12:43:17;;;;;;;8.25;2.78;;;;;;;37.96;17.93;102766.84;5115933;28;20023;-85
2022/10/06 12:45:42;;;;;;;5.10;3.03;;;;;;;38.67;15.80;102767.25;5134574;28;20479;-85
2022/10/06 12:48:19;;;;;;;6.03;3.33;;;;;;;38.31;16.57;102767.09;5134621;28;20028;-85
2022/10/06 12:50:51;;;;;;;6.88;2.95;;;;;;;39.19;16.05;102768.22;5116357;28;20019;-86
2022/10/06 12:53:27;;;;;;;6.47;3.00;;;;;;;38.60;16.71;102762.22;5116038;28;20058;-87